Time;durP1;ratioP1;P1;durP2;ratioP2;P2;SDS_P1;SDS_P2;PMS_P1;PMS_P2;Temp;Humidity;BMP_temperature;BMP_pressure;BME280_temperature;BME280_humidity;BME280_pressure;Samples;Min_cycle;Max_cycle;Signal;HPM_P1;HPM_P2
2021/12/31 00:01:07;;;;;;;2.45;0.38;;;28.20;99.90;;;;;;5077215;28;20253;-77
2021/12/31 00:03:38;;;;;;;0.20;0.20;;;28.40;99.90;;;;;;5075111;28;20185;-76
2021/12/31 00:06:08;;;;;;;2.15;0.30;;;28.60;99.90;;;;;;5076964;28;20182;-77
2021/12/31 00:08:39;;;;;;;2.88;0.30;;;28.50;99.90;;;;;;5079844;28;20639;-77
2021/12/31 00:11:10;;;;;;;1.42;0.20;;;28.40;99.90;;;;;;5079460;28;20524;-78
2021/12/31 00:13:41;;;;;;;1.02;0.38;;;28.50;99.90;;;;;;5086731;28;20228;-76
2021/12/31 00:16:13;;;;;;;2.42;0.40;;;28.50;99.90;;;;;;5077267;28;20196;-78
2021/12/31 00:18:44;;;;;;;1.65;0.50;;;28.50;99.90;;;;;;5075394;28;20181;-77
2021/12/31 00:21:15;;;;;;;1.83;0.32;;;28.70;99.90;;;;;;5081263;28;20258;-76
2021/12/31 00:23:46;;;;;;;1.05;0.30;;;28.70;99.90;;;;;;5076539;28;20211;-77
2021/12/31 00:26:16;;;;;;;2.58;0.40;;;28.50;99.90;;;;;;5073595;28;20208;-77
2021/12/31 00:28:47;;;;;;;1.95;0.35;;;28.50;99.90;;;;;;5071949;28;20197;-77
2021/12/31 00:31:20;;;;;;;1.95;0.38;;;28.50;99.90;;;;;;5073419;28;20641;-77
2021/12/31 00:33:50;;;;;;;0.80;0.35;;;28.60;99.90;;;;;;5067975;28;20217;-77
2021/12/31 00:36:21;;;;;;;1.60;0.47;;;28.50;99.90;;;;;;5072169;28;20234;-79
2021/12/31 00:38:52;;;;;;;2.40;0.40;;;28.50;99.90;;;;;;5070843;28;20221;-80
2021/12/31 00:41:22;;;;;;;4.78;0.50;;;28.60;99.90;;;;;;5070659;28;20747;-78
2021/12/31 00:43:53;;;;;;;96.82;5.28;;;28.50;99.90;;;;;;5073893;28;20588;-79
2021/12/31 00:46:26;;;;;;;6.75;0.60;;;28.50;99.90;;;;;;5071504;28;20189;-78
2021/12/31 00:48:57;;;;;;;41.55;3.22;;;28.60;99.90;;;;;;5074632;28;20201;-76
2021/12/31 00:51:28;;;;;;;13.07;1.10;;;28.80;99.90;;;;;;5078075;28;20193;-77
2021/12/31 00:53:59;;;;;;;4.05;0.43;;;28.90;99.90;;;;;;5072790;28;20212;-76
2021/12/31 00:56:29;;;;;;;1.52;0.30;;;28.70;99.90;;;;;;5075186;28;20185;-76
2021/12/31 00:59:03;;;;;;;1.58;0.40;;;28.70;99.90;;;;;;5073124;28;20200;-77
2021/12/31 01:01:37;;;;;;;1.63;0.40;;;28.70;99.90;;;;;;5065121;28;20185;-76
2021/12/31 01:04:08;;;;;;;2.28;0.40;;;28.50;99.90;;;;;;5059499;28;20188;-75
2021/12/31 01:06:38;;;;;;;6.63;0.68;;;28.50;99.90;;;;;;5069722;28;20212;-76
2021/12/31 01:09:09;;;;;;;14.38;0.98;;;28.60;99.90;;;;;;5063956;28;20208;-76
2021/12/31 01:11:42;;;;;;;9.05;0.47;;;28.40;99.90;;;;;;5070198;28;20193;-77
2021/12/31 01:14:21;;;;;;;8.55;0.90;;;28.30;99.90;;;;;;5066785;28;20235;-76
2021/12/31 01:16:58;;;;;;;1.63;0.57;;;28.10;99.90;;;;;;5063141;28;20193;-78
2021/12/31 01:19:48;;;;;;;1.52;0.40;;;28.00;99.90;;;;;;5066356;28;20191;-75
2021/12/31 01:22:21;;;;;;;2.80;0.65;;;27.80;99.90;;;;;;5072872;28;20645;-76
2021/12/31 01:24:52;;;;;;;1.90;0.47;;;27.90;99.90;;;;;;5072518;28;20549;-76
2021/12/31 01:27:22;;;;;;;1.90;0.40;;;27.70;99.90;;;;;;5072913;28;20193;-76
2021/12/31 01:29:53;;;;;;;1.55;0.40;;;27.90;99.90;;;;;;5072351;28;20196;-76
2021/12/31 01:32:26;;;;;;;3.47;0.70;;;28.00;99.90;;;;;;5072652;28;20185;-75
2021/12/31 01:34:56;;;;;;;2.22;0.40;;;28.00;99.90;;;;;;5071298;28;20575;-85
2021/12/31 01:37:27;;;;;;;4.15;0.40;;;28.00;99.90;;;;;;5074158;28;20216;-74
2021/12/31 01:39:58;;;;;;;2.55;0.40;;;28.10;99.90;;;;;;5071446;28;20725;-73
2021/12/31 01:42:32;;;;;;;3.53;0.60;;;28.00;99.90;;;;;;5072327;28;20235;-75
2021/12/31 01:45:09;;;;;;;2.22;0.60;;;27.90;99.90;;;;;;5071990;28;20204;-76
2021/12/31 01:50:27;;;;;;;2.50;0.65;;;28.10;99.90;;;;;;5072475;28;20549;-79
2021/12/31 01:52:58;;;;;;;1.85;0.50;;;28.10;99.90;;;;;;5073024;28;20213;-73
2021/12/31 01:55:31;;;;;;;2.60;0.50;;;28.00;99.90;;;;;;5068639;28;20224;-75
2021/12/31 01:58:03;;;;;;;3.63;0.50;;;27.90;99.90;;;;;;5072909;28;20189;-74
2021/12/31 02:00:34;;;;;;;1.80;0.60;;;27.90;99.90;;;;;;5067960;28;20636;-74
2021/12/31 02:03:09;;;;;;;3.60;0.80;;;28.00;99.90;;;;;;5059670;28;20213;-75
2021/12/31 02:05:40;;;;;;;2.28;0.50;;;28.10;99.90;;;;;;5066639;28;20616;-74
2021/12/31 02:08:11;;;;;;;2.28;0.30;;;27.90;99.90;;;;;;5072286;28;20199;-75
2021/12/31 02:10:41;;;;;;;2.85;0.60;;;28.10;99.90;;;;;;5071969;28;20246;-74
2021/12/31 02:13:13;;;;;;;1.27;0.40;;;27.70;99.90;;;;;;5072170;28;20596;-75
2021/12/31 02:15:44;;;;;;;3.30;0.63;;;27.80;99.90;;;;;;5072250;28;20209;-75
2021/12/31 02:18:16;;;;;;;2.42;0.35;;;27.90;99.90;;;;;;5072422;28;20637;-75
2021/12/31 02:20:49;;;;;;;1.13;0.30;;;27.60;99.90;;;;;;5072443;28;20185;-75
2021/12/31 02:23:23;;;;;;;2.10;0.40;;;27.50;99.90;;;;;;5072339;28;20246;-75
2021/12/31 02:25:54;;;;;;;1.95;0.30;;;27.50;99.90;;;;;;5072833;28;20197;-76
2021/12/31 02:28:25;;;;;;;0.77;0.30;;;27.40;99.90;;;;;;5072738;28;20251;-74
2021/12/31 02:31:00;;;;;;;1.65;0.35;;;27.40;99.90;;;;;;5072805;28;20228;-76
2021/12/31 02:33:31;;;;;;;2.78;0.30;;;27.40;99.90;;;;;;5072374;28;20184;-75
2021/12/31 02:36:05;;;;;;;2.92;0.50;;;27.60;99.90;;;;;;5072607;28;20239;-75
2021/12/31 02:38:37;;;;;;;1.83;0.50;;;27.50;99.90;;;;;;5071001;28;20221;-76
2021/12/31 02:41:08;;;;;;;1.95;0.30;;;27.40;99.90;;;;;;5074587;28;20239;-74
2021/12/31 02:43:38;;;;;;;5.07;0.57;;;27.30;99.90;;;;;;5091367;28;20193;-75
2021/12/31 02:46:09;;;;;;;2.08;0.32;;;27.50;99.90;;;;;;5078597;28;20208;-76
2021/12/31 02:48:40;;;;;;;2.08;0.38;;;27.60;99.90;;;;;;5069646;28;20196;-76
2021/12/31 02:51:13;;;;;;;1.55;0.30;;;27.60;99.90;;;;;;5072500;28;20204;-75
2021/12/31 02:53:46;;;;;;;1.73;0.38;;;27.60;99.90;;;;;;5071931;28;20196;-75
2021/12/31 02:56:17;;;;;;;3.10;0.40;;;27.60;99.90;;;;;;5070383;28;20591;-75
2021/12/31 02:58:48;;;;;;;2.40;0.40;;;27.40;99.90;;;;;;5078063;28;20194;-76
2021/12/31 03:01:20;;;;;;;5.25;0.47;;;27.50;99.90;;;;;;5074982;28;20193;-75
2021/12/31 03:03:53;;;;;;;2.25;0.40;;;27.60;99.90;;;;;;5076667;28;20197;-75
2021/12/31 03:06:25;;;;;;;3.58;0.40;;;27.50;99.90;;;;;;5077725;28;20200;-77
2021/12/31 03:08:57;;;;;;;1.70;0.40;;;27.60;99.90;;;;;;5088580;28;20197;-75
2021/12/31 03:11:29;;;;;;;1.58;0.50;;;27.60;99.90;;;;;;5094721;28;20184;-78
2021/12/31 03:14:02;;;;;;;1.35;0.40;;;27.70;99.90;;;;;;5096254;28;20236;-75
2021/12/31 03:16:34;;;;;;;3.30;0.30;;;27.80;99.90;;;;;;5085134;28;20202;-75
2021/12/31 03:19:05;;;;;;;2.08;0.40;;;27.60;99.90;;;;;;5075835;28;20185;-76
2021/12/31 03:21:38;;;;;;;4.72;0.63;;;27.80;99.90;;;;;;5075889;28;20193;-75
2021/12/31 03:24:09;;;;;;;1.50;0.40;;;27.70;99.90;;;;;;5075985;28;20189;-75
2021/12/31 03:26:39;;;;;;;3.03;0.43;;;27.50;99.90;;;;;;5080461;28;20184;-75
2021/12/31 03:29:10;;;;;;;3.17;0.50;;;27.60;99.90;;;;;;5077538;28;20200;-75
2021/12/31 03:31:41;;;;;;;1.35;0.40;;;27.40;99.90;;;;;;5075779;28;20572;-75
2021/12/31 03:34:14;;;;;;;2.70;0.47;;;27.50;99.90;;;;;;5076848;28;20284;-76
2021/12/31 03:36:47;;;;;;;1.52;0.35;;;27.40;99.90;;;;;;5074601;28;20249;-76
2021/12/31 03:39:17;;;;;;;2.38;0.40;;;27.30;99.90;;;;;;5075406;28;20193;-76
2021/12/31 03:41:48;;;;;;;2.38;0.43;;;27.30;99.90;;;;;;5075491;28;20185;-76
2021/12/31 03:44:19;;;;;;;3.05;0.40;;;27.20;99.90;;;;;;5066243;28;20208;-75
2021/12/31 03:46:49;;;;;;;2.58;0.47;;;27.20;99.90;;;;;;5082680;28;20571;-76
2021/12/31 03:49:20;;;;;;;1.30;0.40;;;27.30;99.90;;;;;;5075075;28;20201;-77
2021/12/31 03:51:53;;;;;;;3.30;0.60;;;27.30;99.90;;;;;;5075166;28;20195;-76
2021/12/31 03:54:24;;;;;;;2.97;0.30;;;27.40;99.90;;;;;;5075632;28;20189;-75
2021/12/31 03:56:54;;;;;;;3.55;0.60;;;27.40;99.90;;;;;;5085662;28;20188;-76
2021/12/31 03:59:28;;;;;;;2.72;0.50;;;27.50;99.90;;;;;;5079686;28;20556;-76
2021/12/31 04:01:59;;;;;;;2.80;0.43;;;27.40;99.90;;;;;;5075001;28;20196;-75
2021/12/31 04:04:30;;;;;;;2.42;0.50;;;27.30;99.90;;;;;;5058503;28;20194;-75
2021/12/31 04:07:03;;;;;;;2.92;0.70;;;27.30;99.90;;;;;;5069701;28;20648;-77
2021/12/31 04:09:33;;;;;;;0.90;0.30;;;27.20;99.90;;;;;;5068588;28;20196;-76
2021/12/31 04:12:04;;;;;;;6.85;0.60;;;27.00;99.90;;;;;;5075046;28;20189;-75
2021/12/31 04:14:35;;;;;;;3.60;0.50;;;27.20;99.90;;;;;;5061792;28;20221;-76
2021/12/31 04:17:06;;;;;;;3.13;0.77;;;27.30;99.90;;;;;;5073649;28;20185;-76
2021/12/31 04:19:36;;;;;;;3.75;0.60;;;27.60;99.90;;;;;;5074503;28;20185;-75
2021/12/31 04:22:11;;;;;;;2.63;0.43;;;27.50;99.90;;;;;;5065645;28;20190;-76
2021/12/31 04:24:54;;;;;;;2.45;0.40;;;27.30;99.90;;;;;;5063800;28;20189;-76
2021/12/31 04:27:26;;;;;;;3.22;0.65;;;27.20;99.90;;;;;;5079086;28;20233;-75
2021/12/31 04:29:56;;;;;;;1.70;0.50;;;27.20;99.90;;;;;;5083671;28;20188;-76
2021/12/31 04:32:27;;;;;;;3.30;0.57;;;27.10;99.90;;;;;;5087929;28;20181;-76
2021/12/31 04:34:57;;;;;;;3.00;0.63;;;27.20;99.90;;;;;;5074290;28;20283;-77
2021/12/31 04:37:30;;;;;;;4.53;0.60;;;27.10;99.90;;;;;;5090613;28;20220;-76
2021/12/31 04:40:01;;;;;;;3.63;0.47;;;27.20;99.90;;;;;;5082170;28;20184;-76
2021/12/31 04:42:32;;;;;;;6.80;0.70;;;27.10;99.90;;;;;;5065582;28;20238;-77
2021/12/31 04:45:02;;;;;;;3.35;0.60;;;27.10;99.90;;;;;;5057255;28;20194;-76
2021/12/31 04:47:33;;;;;;;4.28;0.60;;;27.00;99.90;;;;;;5057807;28;20204;-78
2021/12/31 04:50:04;;;;;;;6.10;0.70;;;27.00;99.90;;;;;;5074600;28;20185;-76
2021/12/31 04:52:36;;;;;;;3.03;0.60;;;27.10;99.90;;;;;;5074166;28;20188;-76
2021/12/31 04:55:08;;;;;;;4.97;0.75;;;26.90;99.90;;;;;;5071614;28;20219;-77
2021/12/31 04:57:39;;;;;;;2.17;0.40;;;26.90;99.90;;;;;;5070323;28;20552;-76
2021/12/31 05:00:12;;;;;;;2.90;0.63;;;26.90;99.90;;;;;;5074508;28;20226;-76
2021/12/31 05:02:43;;;;;;;2.42;0.50;;;26.80;99.90;;;;;;5067412;28;20560;-76
2021/12/31 05:05:13;;;;;;;2.78;0.50;;;26.80;99.90;;;;;;5071360;28;20189;-78
2021/12/31 05:07:46;;;;;;;4.35;0.57;;;26.80;99.90;;;;;;5073451;28;20189;-77
2021/12/31 05:10:18;;;;;;;3.58;0.52;;;26.80;99.90;;;;;;5073034;28;20186;-77
2021/12/31 05:12:52;;;;;;;4.00;0.60;;;26.80;99.90;;;;;;5064499;28;20235;-76
2021/12/31 05:15:27;;;;;;;4.38;0.70;;;26.90;99.90;;;;;;5071270;28;20216;-76
2021/12/31 05:18:03;;;;;;;3.65;0.50;;;26.90;99.90;;;;;;5073110;28;20192;-76
2021/12/31 05:20:34;;;;;;;6.28;0.50;;;26.80;99.90;;;;;;5067128;28;20189;-76
2021/12/31 05:23:06;;;;;;;3.70;0.60;;;26.60;99.90;;;;;;5063811;28;20181;-79
2021/12/31 05:25:37;;;;;;;5.03;0.60;;;26.50;99.90;;;;;;5073666;28;20200;-78
2021/12/31 05:28:08;;;;;;;5.03;0.60;;;26.50;99.90;;;;;;5068141;28;20189;-77
2021/12/31 05:30:38;;;;;;;2.20;0.47;;;26.50;99.90;;;;;;5072041;28;20185;-76
2021/12/31 05:33:09;;;;;;;5.53;0.68;;;26.50;99.90;;;;;;5071607;28;20191;-77
2021/12/31 05:35:40;;;;;;;8.60;0.88;;;26.50;99.90;;;;;;5067701;28;20209;-80
2021/12/31 05:38:13;;;;;;;2.80;0.40;;;26.50;99.90;;;;;;5066182;28;20398;-76
2021/12/31 05:40:43;;;;;;;5.97;0.90;;;26.50;99.90;;;;;;5085846;28;20192;-78
2021/12/31 05:43:14;;;;;;;2.60;0.70;;;26.50;99.90;;;;;;5072288;28;20600;-78
2021/12/31 05:45:45;;;;;;;6.28;0.98;;;26.60;99.90;;;;;;5072646;28;20204;-78
2021/12/31 05:48:18;;;;;;;3.72;0.60;;;26.70;99.90;;;;;;5073378;28;20189;-76
2021/12/31 05:50:49;;;;;;;3.60;0.65;;;26.50;99.90;;;;;;5073172;28;20263;-79
2021/12/31 05:53:22;;;;;;;3.35;0.73;;;26.50;99.90;;;;;;5073275;28;20212;-78
2021/12/31 05:55:52;;;;;;;4.25;0.70;;;26.40;99.90;;;;;;5073208;28;20223;-77
2021/12/31 05:58:23;;;;;;;3.72;0.70;;;26.50;99.90;;;;;;5073203;28;20193;-79
2021/12/31 06:00:53;;;;;;;3.50;0.68;;;26.50;99.90;;;;;;5073201;28;20193;-77
2021/12/31 06:03:24;;;;;;;3.85;0.70;;;26.50;99.90;;;;;;5070944;28;20193;-76
2021/12/31 06:05:55;;;;;;;6.22;0.85;;;26.40;99.90;;;;;;5069645;28;20189;-77
2021/12/31 06:08:27;;;;;;;3.05;0.52;;;26.20;99.90;;;;;;5073256;28;20197;-77
2021/12/31 06:10:59;;;;;;;6.25;0.68;;;26.20;99.90;;;;;;5072916;28;20240;-77
2021/12/31 06:13:29;;;;;;;2.75;0.70;;;26.20;99.90;;;;;;5072993;28;20232;-76
2021/12/31 06:16:00;;;;;;;2.72;0.50;;;26.10;99.90;;;;;;5072749;28;20229;-77
2021/12/31 06:18:31;;;;;;;2.53;0.57;;;26.00;99.90;;;;;;5073083;28;20196;-77
2021/12/31 06:21:03;;;;;;;6.72;0.75;;;26.00;99.90;;;;;;5073219;28;20189;-77
2021/12/31 06:23:35;;;;;;;5.07;0.52;;;26.00;99.90;;;;;;5073116;28;20250;-77
2021/12/31 06:26:06;;;;;;;2.55;0.47;;;25.90;99.90;;;;;;5073144;28;20204;-77
2021/12/31 06:28:37;;;;;;;4.20;0.60;;;25.90;99.90;;;;;;5073149;28;20272;-77
2021/12/31 06:31:07;;;;;;;4.45;0.80;;;25.90;99.90;;;;;;5072902;28;20560;-78
2021/12/31 06:33:38;;;;;;;3.38;0.70;;;25.90;99.90;;;;;;5072719;28;20188;-76
2021/12/31 06:36:09;;;;;;;5.03;0.80;;;25.90;99.90;;;;;;5075230;28;20232;-78
2021/12/31 06:38:42;;;;;;;5.35;0.80;;;25.90;99.90;;;;;;5076829;28;20246;-77
2021/12/31 06:41:14;;;;;;;5.07;0.70;;;25.90;99.90;;;;;;5076920;28;20226;-76
2021/12/31 06:43:45;;;;;;;5.30;1.73;;;26.00;99.90;;;;;;5077029;28;20193;-77
2021/12/31 06:46:16;;;;;;;6.75;1.35;;;26.10;99.90;;;;;;5076598;28;20558;-78
2021/12/31 06:48:48;;;;;;;6.63;0.93;;;26.00;99.90;;;;;;5076843;28;20246;-78
2021/12/31 06:51:19;;;;;;;4.20;1.00;;;25.80;99.90;;;;;;5076566;28;20185;-78
2021/12/31 06:53:51;;;;;;;5.20;1.10;;;25.70;99.90;;;;;;5076714;28;20189;-77
2021/12/31 06:56:22;;;;;;;6.53;1.10;;;25.70;99.90;;;;;;5076395;28;20213;-78
2021/12/31 06:58:53;;;;;;;6.63;0.98;;;25.80;99.90;;;;;;5075503;28;20193;-77
2021/12/31 07:01:24;;;;;;;5.63;1.00;;;25.70;99.90;;;;;;5075504;28;20259;-77
2021/12/31 07:03:55;;;;;;;4.53;0.88;;;25.60;99.90;;;;;;5075191;28;20220;-78
2021/12/31 07:06:26;;;;;;;8.05;1.00;;;25.60;99.90;;;;;;5076283;28;20197;-77
2021/12/31 07:08:58;;;;;;;7.05;0.95;;;25.50;99.90;;;;;;5076398;28;20246;-76
2021/12/31 07:11:29;;;;;;;4.38;1.27;;;25.50;99.90;;;;;;5076295;28;20718;-77
2021/12/31 07:14:00;;;;;;;7.95;1.08;;;25.60;99.90;;;;;;5076104;28;20696;-76
2021/12/31 07:16:30;;;;;;;5.75;0.82;;;25.50;99.90;;;;;;5076185;28;20217;-77
2021/12/31 07:19:04;;;;;;;3.25;0.70;;;25.40;99.90;;;;;;5076232;28;20200;-75
2021/12/31 07:21:34;;;;;;;4.35;0.93;;;25.40;99.90;;;;;;5076213;28;20663;-77
2021/12/31 07:24:08;;;;;;;6.15;0.98;;;25.40;99.90;;;;;;5076123;28;20546;-77
2021/12/31 07:26:38;;;;;;;7.85;0.93;;;25.40;99.90;;;;;;5076169;28;20196;-76
2021/12/31 07:29:09;;;;;;;4.40;0.70;;;25.30;99.90;;;;;;5075774;28;20216;-77
2021/12/31 07:31:40;;;;;;;4.35;0.68;;;25.30;99.90;;;;;;5075788;28;20185;-76
2021/12/31 07:34:10;;;;;;;4.40;0.70;;;25.30;99.90;;;;;;5075946;28;20189;-76
2021/12/31 07:36:41;;;;;;;5.75;1.20;;;25.20;99.90;;;;;;5075209;28;20237;-77
2021/12/31 07:39:14;;;;;;;5.78;1.33;;;25.20;99.90;;;;;;5075706;28;20197;-76
2021/12/31 07:41:44;;;;;;;5.50;0.98;;;25.20;99.90;;;;;;5075714;28;20189;-77
2021/12/31 07:44:18;;;;;;;6.05;1.00;;;25.20;99.90;;;;;;5075800;28;20672;-76
2021/12/31 07:46:49;;;;;;;2.40;0.65;;;25.10;99.90;;;;;;5075266;28;20272;-78
2021/12/31 07:49:19;;;;;;;2.35;0.60;;;25.10;99.90;;;;;;5075836;28;20185;-75
2021/12/31 07:51:50;;;;;;;4.22;0.80;;;25.00;99.90;;;;;;5075340;28;20243;-75
2021/12/31 07:54:23;;;;;;;4.40;0.90;;;25.00;99.90;;;;;;5075677;28;20645;-77
2021/12/31 07:56:53;;;;;;;7.40;1.40;;;25.10;99.90;;;;;;5075152;28;20216;-76
2021/12/31 07:59:24;;;;;;;7.03;1.05;;;25.20;99.90;;;;;;5075373;28;20197;-76
2021/12/31 08:01:55;;;;;;;7.40;2.17;;;25.20;99.90;;;;;;5075427;28;20197;-77
2021/12/31 08:04:26;;;;;;;6.10;1.20;;;25.00;99.90;;;;;;5070332;28;20676;-77
2021/12/31 08:06:57;;;;;;;3.33;0.85;;;25.00;99.90;;;;;;5075428;28;20223;-76
2021/12/31 08:09:30;;;;;;;6.78;1.02;;;24.90;99.90;;;;;;5075287;28;20285;-76
2021/12/31 08:12:00;;;;;;;5.32;0.85;;;24.90;99.90;;;;;;5075027;28;20193;-76
2021/12/31 08:14:31;;;;;;;4.72;0.98;;;24.80;99.90;;;;;;5075144;28;20228;-77
2021/12/31 08:17:02;;;;;;;6.60;1.10;;;24.80;99.90;;;;;;5074977;28;20212;-76
2021/12/31 08:19:32;;;;;;;7.00;1.40;;;24.70;99.90;;;;;;5074963;28;20193;-77
2021/12/31 08:22:03;;;;;;;6.03;1.25;;;24.60;99.90;;;;;;5075094;28;20196;-75
2021/12/31 08:24:35;;;;;;;6.43;1.33;;;24.60;99.90;;;;;;5075063;28;20189;-77
2021/12/31 08:27:06;;;;;;;6.05;0.90;;;24.50;99.90;;;;;;5074566;28;20196;-77
2021/12/31 08:29:37;;;;;;;7.00;0.90;;;24.50;99.90;;;;;;5074875;28;20189;-78
2021/12/31 08:32:08;;;;;;;6.05;1.10;;;24.50;99.90;;;;;;5074697;28;20275;-77
2021/12/31 08:34:39;;;;;;;5.47;1.00;;;24.40;99.90;;;;;;5074724;28;20197;-76
2021/12/31 08:37:10;;;;;;;6.70;1.00;;;24.30;99.90;;;;;;5072146;28;20232;-76
2021/12/31 08:39:43;;;;;;;7.47;0.80;;;24.30;99.90;;;;;;5074197;28;20692;-77
2021/12/31 08:42:14;;;;;;;6.28;0.98;;;24.20;99.90;;;;;;5075093;28;20201;-76
2021/12/31 08:44:44;;;;;;;7.18;1.10;;;24.10;99.90;;;;;;5074212;28;20228;-77
2021/12/31 08:47:15;;;;;;;10.15;1.10;;;24.10;99.90;;;;;;5074489;28;20197;-78
2021/12/31 08:49:46;;;;;;;5.75;1.20;;;24.10;99.90;;;;;;5074482;28;20193;-76
2021/12/31 08:52:16;;;;;;;8.73;1.15;;;24.00;99.90;;;;;;5074447;28;20185;-77
2021/12/31 08:54:49;;;;;;;6.40;1.13;;;24.00;99.90;;;;;;5074114;28;20235;-76
2021/12/31 08:57:20;;;;;;;7.18;1.13;;;23.90;99.90;;;;;;5073246;28;20217;-76
2021/12/31 08:59:51;;;;;;;7.43;0.90;;;23.90;99.90;;;;;;5074079;28;20358;-76
2021/12/31 09:02:22;;;;;;;8.90;1.20;;;23.80;99.90;;;;;;5073878;28;20200;-78
2021/12/31 09:04:52;;;;;;;7.22;1.25;;;23.80;99.90;;;;;;5074127;28;20189;-78
2021/12/31 09:07:23;;;;;;;8.27;1.08;;;23.70;99.90;;;;;;5073472;28;20215;-77
2021/12/31 09:09:55;;;;;;;7.32;0.90;;;23.70;99.90;;;;;;5073827;28;20235;-75
2021/12/31 09:12:26;;;;;;;7.95;1.08;;;23.70;99.90;;;;;;5073870;28;20193;-76
2021/12/31 09:14:57;;;;;;;8.82;1.13;;;23.70;99.90;;;;;;5073984;28;20197;-76
2021/12/31 09:17:28;;;;;;;7.20;1.38;;;23.60;99.90;;;;;;5073771;28;20217;-75
2021/12/31 09:19:58;;;;;;;9.60;1.17;;;23.60;99.90;;;;;;5073768;28;20246;-76
2021/12/31 09:22:29;;;;;;;5.22;0.90;;;23.60;99.90;;;;;;5074342;28;20193;-76
2021/12/31 09:25:02;;;;;;;7.97;1.20;;;23.60;99.90;;;;;;5073517;28;20193;-77
2021/12/31 09:27:33;;;;;;;7.40;1.17;;;23.50;99.90;;;;;;5071640;28;20204;-77
2021/12/31 09:30:03;;;;;;;6.15;1.10;;;23.50;99.90;;;;;;5071059;28;20197;-75
2021/12/31 09:32:34;;;;;;;6.13;1.30;;;23.60;99.90;;;;;;5073295;28;20193;-77
2021/12/31 09:35:05;;;;;;;7.82;1.10;;;23.50;99.90;;;;;;5073280;28;20189;-77
2021/12/31 09:37:35;;;;;;;7.38;1.40;;;23.40;99.90;;;;;;5073269;28;20217;-76
2021/12/31 09:40:09;;;;;;;7.72;0.90;;;23.40;99.90;;;;;;5073400;28;20197;-76
2021/12/31 09:42:40;;;;;;;8.65;1.20;;;23.30;99.90;;;;;;5073463;28;20192;-76
2021/12/31 09:45:16;;;;;;;5.30;0.90;;;23.30;99.90;;;;;;5073351;28;20193;-76
2021/12/31 09:47:47;;;;;;;6.80;1.23;;;23.30;99.90;;;;;;5073287;28;20192;-76
2021/12/31 09:50:18;;;;;;;5.82;0.80;;;23.30;99.90;;;;;;5073256;28;20284;-76
2021/12/31 09:52:48;;;;;;;4.68;0.82;;;23.30;99.90;;;;;;5073201;28;20192;-78
2021/12/31 09:55:38;;;;;;;6.50;0.90;;;23.30;99.90;;;;;;5073206;28;20193;-75
2021/12/31 09:58:09;;;;;;;6.57;0.88;;;23.30;99.90;;;;;;5073075;28;20227;-78
2021/12/31 10:00:41;;;;;;;5.10;0.95;;;23.30;99.90;;;;;;5073182;28;20702;-76
2021/12/31 10:03:14;;;;;;;7.60;1.00;;;23.30;99.90;;;;;;5073057;28;20222;-76
2021/12/31 10:05:46;;;;;;;9.02;1.00;;;23.30;99.90;;;;;;5066874;28;20198;-76
2021/12/31 10:08:21;;;;;;;6.57;1.13;;;23.30;99.90;;;;;;5052762;28;20642;-75
2021/12/31 10:11:11;;;;;;;5.75;0.90;;;23.30;99.90;;;;;;5053133;28;20185;-76
2021/12/31 10:13:44;;;;;;;6.43;1.08;;;23.30;99.90;;;;;;5056395;28;20274;-76
2021/12/31 10:16:28;;;;;;;8.23;1.10;;;23.30;99.90;;;;;;5052918;28;20555;-76
2021/12/31 10:19:10;;;;;;;11.02;1.33;;;23.30;99.90;;;;;;5067430;28;20232;-76
2021/12/31 10:21:43;;;;;;;6.22;1.00;;;23.30;99.90;;;;;;5072816;28;20189;-75
2021/12/31 10:24:28;;;;;;;7.95;1.08;;;23.20;99.90;;;;;;5071058;28;20189;-75
2021/12/31 10:27:03;;;;;;;9.52;1.40;;;23.20;99.90;;;;;;5072174;28;20325;-76
2021/12/31 10:29:34;;;;;;;9.15;1.00;;;23.20;99.90;;;;;;5072715;28;20206;-76
2021/12/31 10:32:05;;;;;;;8.55;1.40;;;23.20;99.90;;;;;;5072832;28;20193;-76
2021/12/31 10:34:38;;;;;;;5.88;0.93;;;23.20;99.90;;;;;;5072627;28;20189;-76
2021/12/31 10:37:18;;;;;;;7.45;1.00;;;23.20;99.90;;;;;;5072091;28;20221;-76
2021/12/31 10:39:56;;;;;;;7.88;1.17;;;23.20;99.90;;;;;;5072626;28;20565;-76
2021/12/31 10:42:34;;;;;;;6.13;1.02;;;23.20;99.90;;;;;;5072515;28;20196;-76
2021/12/31 10:45:06;;;;;;;7.70;1.23;;;23.20;99.90;;;;;;5072641;28;20199;-76
2021/12/31 10:47:42;;;;;;;12.73;1.42;;;23.20;99.90;;;;;;5072394;28;20200;-76
2021/12/31 10:50:15;;;;;;;11.82;1.52;;;23.20;99.90;;;;;;5072374;28;20191;-75
2021/12/31 10:53:01;;;;;;;9.57;1.40;;;23.20;99.90;;;;;;5071653;28;20227;-75
2021/12/31 10:55:34;;;;;;;12.52;1.23;;;23.20;99.90;;;;;;5072931;28;20193;-76
2021/12/31 10:58:07;;;;;;;10.40;1.50;;;23.20;99.90;;;;;;5072539;28;20662;-77
2021/12/31 11:00:39;;;;;;;5.75;1.20;;;23.20;99.90;;;;;;5072659;28;20548;-77
2021/12/31 11:03:11;;;;;;;8.35;1.50;;;23.10;99.90;;;;;;5072445;28;20641;-76
2021/12/31 11:05:42;;;;;;;6.82;1.30;;;23.20;99.90;;;;;;5072392;28;20193;-76
2021/12/31 11:08:14;;;;;;;8.30;1.20;;;23.10;99.90;;;;;;5072489;28;20197;-76
2021/12/31 11:10:45;;;;;;;6.47;1.00;;;23.10;99.90;;;;;;5072163;28;20192;-76
2021/12/31 11:13:19;;;;;;;6.10;0.95;;;23.10;99.90;;;;;;5072163;28;20228;-76
2021/12/31 11:15:52;;;;;;;9.35;1.48;;;23.10;99.90;;;;;;5072341;28;20189;-77
2021/12/31 11:18:23;;;;;;;11.65;1.48;;;23.10;99.90;;;;;;5072052;28;20221;-76
2021/12/31 11:20:55;;;;;;;10.70;1.38;;;23.10;99.90;;;;;;5072901;28;20318;-76
2021/12/31 11:23:30;;;;;;;9.10;1.30;;;23.10;99.90;;;;;;5075903;28;20196;-76
2021/12/31 11:26:04;;;;;;;9.40;1.40;;;23.10;99.90;;;;;;5075918;28;20199;-76
2021/12/31 11:28:37;;;;;;;12.38;1.40;;;23.10;99.90;;;;;;5075902;28;20530;-76
2021/12/31 11:31:29;;;;;;;9.63;1.20;;;23.10;99.90;;;;;;5075755;28;20637;-76
2021/12/31 11:34:27;;;;;;;9.93;1.35;;;23.00;99.90;;;;;;5075594;28;20188;-76
2021/12/31 11:36:58;;;;;;;6.70;1.15;;;23.00;99.90;;;;;;5075039;28;20247;-76
2021/12/31 11:39:30;;;;;;;9.77;1.23;;;23.00;99.90;;;;;;5075435;28;20201;-76
2021/12/31 11:42:02;;;;;;;7.43;1.15;;;23.00;99.90;;;;;;5075709;28;20193;-76
2021/12/31 11:44:38;;;;;;;7.68;1.20;;;22.90;99.90;;;;;;5075640;28;20189;-78
2021/12/31 11:47:15;;;;;;;8.02;1.27;;;22.90;99.90;;;;;;5075223;28;20203;-76
2021/12/31 11:49:47;;;;;;;8.02;1.25;;;22.90;99.90;;;;;;5075405;28;20326;-76
2021/12/31 11:52:20;;;;;;;8.10;1.40;;;22.90;99.90;;;;;;5075485;28;20638;-76
2021/12/31 11:55:16;;;;;;;8.68;1.20;;;22.90;99.90;;;;;;5075452;28;20193;-76
2021/12/31 11:57:47;;;;;;;8.70;1.10;;;22.90;99.90;;;;;;5075195;28;20223;-76
2021/12/31 12:00:30;;;;;;;10.70;1.42;;;22.90;99.90;;;;;;5075273;28;20649;-76
2021/12/31 12:03:01;;;;;;;7.25;1.30;;;22.90;99.90;;;;;;5074811;28;20553;-76
2021/12/31 12:05:44;;;;;;;10.50;1.42;;;22.80;99.90;;;;;;5074347;28;20637;-77
2021/12/31 12:08:30;;;;;;;9.07;1.20;;;22.90;99.90;;;;;;5054825;28;20196;-77
2021/12/31 12:11:01;;;;;;;7.25;1.42;;;22.80;99.90;;;;;;5055122;28;20198;-77
2021/12/31 12:13:32;;;;;;;7.53;1.20;;;22.80;99.90;;;;;;5054848;28;20233;-76
2021/12/31 12:16:05;;;;;;;8.68;1.25;;;22.80;99.90;;;;;;5054932;28;20196;-76
2021/12/31 12:18:55;;;;;;;11.05;1.60;;;22.80;99.90;;;;;;5067866;28;20300;-76
2021/12/31 12:21:39;;;;;;;5.07;1.40;;;22.80;99.90;;;;;;5074353;28;20192;-77
2021/12/31 12:24:11;;;;;;;6.45;1.27;;;22.70;99.90;;;;;;5074894;28;20189;-76
2021/12/31 12:26:43;;;;;;;12.27;1.30;;;22.70;99.90;;;;;;5074905;28;20192;-77
2021/12/31 12:29:14;;;;;;;7.93;1.40;;;22.70;99.90;;;;;;5074408;28;20196;-76
2021/12/31 12:31:55;;;;;;;7.53;1.17;;;22.70;99.90;;;;;;5074123;28;20209;-77
2021/12/31 12:34:31;;;;;;;13.63;1.55;;;22.70;99.90;;;;;;5074629;28;20189;-76
2021/12/31 12:37:03;;;;;;;12.93;1.70;;;22.60;99.90;;;;;;5074013;28;20236;-77
2021/12/31 12:39:34;;;;;;;7.68;1.10;;;22.60;99.90;;;;;;5074412;28;20193;-77
2021/12/31 12:42:07;;;;;;;8.45;1.20;;;22.60;99.90;;;;;;5074523;28;20193;-76
2021/12/31 12:44:39;;;;;;;8.60;1.10;;;22.60;99.90;;;;;;5073620;28;20193;-76
2021/12/31 12:47:12;;;;;;;5.78;1.08;;;22.60;99.90;;;;;;5070271;28;20181;-77
2021/12/31 12:49:42;;;;;;;5.70;1.20;;;22.60;99.90;;;;;;5075157;28;20188;-77
2021/12/31 12:52:16;;;;;;;10.52;1.40;;;22.60;99.90;;;;;;5074070;28;20184;-76
2021/12/31 12:54:47;;;;;;;6.70;1.20;;;22.60;99.90;;;;;;5074392;28;20189;-77
2021/12/31 12:57:25;;;;;;;7.22;1.27;;;22.60;99.90;;;;;;5085158;28;20189;-76
2021/12/31 12:59:56;;;;;;;9.00;1.30;;;22.60;99.90;;;;;;5076734;28;20693;-76
2021/12/31 13:02:42;;;;;;;7.45;1.15;;;22.60;99.90;;;;;;5080708;28;20238;-76
2021/12/31 13:05:14;;;;;;;10.88;1.10;;;22.60;99.90;;;;;;5075531;28;20199;-76
2021/12/31 13:07:52;;;;;;;8.70;1.10;;;22.50;99.90;;;;;;5090422;28;20197;-77
2021/12/31 13:10:26;;;;;;;9.63;1.25;;;22.50;99.90;;;;;;5088889;28;20189;-77
2021/12/31 13:12:57;;;;;;;7.15;1.13;;;22.50;99.90;;;;;;5072625;28;20696;-76
2021/12/31 13:15:32;;;;;;;5.07;1.33;;;22.40;99.90;;;;;;5073656;28;20698;-76